createdAt,value
2023-04-20T00:00:45.801Z,7.72
2023-04-20T00:02:47.770Z,7.85
2023-04-20T00:04:49.480Z,10.50
2023-04-20T00:06:51.055Z,6.90
2023-04-20T00:08:52.574Z,8.67
2023-04-20T00:10:54.087Z,5.10
2023-04-20T00:12:57.057Z,7.55
2023-04-20T00:14:58.590Z,4.97
2023-04-20T00:17:00.223Z,4.80
2023-04-20T00:19:02.075Z,6.00
2023-04-20T00:21:03.857Z,4.55
2023-04-20T00:23:05.564Z,5.53
2023-04-20T00:25:08.004Z,5.53
2023-04-20T00:27:09.528Z,5.33
2023-04-20T00:29:12.402Z,5.72
2023-04-20T00:31:14.098Z,5.25
2023-04-20T00:33:15.697Z,9.38
2023-04-20T00:35:17.339Z,3.92
2023-04-20T00:37:18.890Z,5.30
2023-04-20T00:39:20.382Z,4.95
2023-04-20T00:41:21.895Z,6.20
2023-04-20T00:43:24.348Z,6.65
2023-04-20T00:45:27.241Z,7.27
2023-04-20T00:47:28.781Z,5.72
2023-04-20T00:49:31.769Z,4.80
2023-04-20T00:51:34.564Z,4.70
2023-04-20T00:53:36.651Z,6.07
2023-04-20T00:55:39.172Z,6.47
2023-04-20T00:57:41.081Z,7.32
2023-04-20T00:59:42.741Z,5.82
2023-04-20T01:01:45.694Z,6.00
2023-04-20T01:03:47.659Z,5.20
2023-04-20T01:05:49.694Z,6.53
2023-04-20T01:07:51.234Z,5.30
2023-04-20T01:09:52.740Z,5.07
2023-04-20T01:11:54.317Z,7.13
2023-04-20T01:13:56.139Z,6.18
2023-04-20T01:15:58.862Z,7.35
2023-04-20T01:18:01.823Z,5.03
2023-04-20T01:20:04.277Z,5.45
2023-04-20T01:22:05.861Z,5.15
2023-04-20T01:24:09.014Z,4.90
2023-04-20T01:26:12.536Z,7.30
2023-04-20T01:28:14.113Z,5.20
2023-04-20T01:30:15.667Z,8.90
2023-04-20T01:32:17.218Z,6.95
2023-04-20T01:34:18.802Z,6.88
2023-04-20T01:36:23.297Z,7.20
2023-04-20T01:38:25.830Z,5.78
2023-04-20T01:40:28.784Z,6.13
2023-04-20T01:42:30.282Z,8.25
2023-04-20T01:44:32.071Z,7.03
2023-04-20T01:46:36.552Z,6.03
2023-04-20T01:48:38.149Z,6.25
2023-04-20T01:50:39.666Z,5.10
2023-04-20T01:52:41.185Z,5.13
2023-04-20T01:54:42.758Z,6.53
2023-04-20T01:56:45.691Z,5.20
2023-04-20T01:58:47.202Z,10.38
2023-04-20T02:00:48.844Z,5.90
2023-04-20T02:02:50.527Z,5.75
2023-04-20T02:04:52.434Z,8.77
2023-04-20T02:06:54.146Z,5.32
2023-04-20T02:08:55.690Z,5.20
2023-04-20T02:10:57.256Z,5.00
2023-04-20T02:13:00.158Z,5.32
2023-04-20T02:15:01.697Z,5.75
2023-04-20T02:17:03.231Z,5.53
2023-04-20T02:19:04.819Z,5.45
2023-04-20T02:21:06.826Z,7.75
2023-04-20T02:23:08.464Z,7.97
2023-04-20T02:25:10.483Z,5.43
2023-04-20T02:27:12.167Z,6.80
2023-04-20T02:29:15.060Z,5.22
2023-04-20T02:31:16.639Z,5.50
2023-04-20T02:33:18.328Z,5.22
2023-04-20T02:35:19.944Z,7.32
2023-04-20T02:37:21.536Z,6.13
2023-04-20T02:39:23.113Z,6.32
2023-04-20T02:41:24.636Z,5.47
2023-04-20T02:43:26.224Z,6.20
2023-04-20T02:45:29.150Z,6.72
2023-04-20T02:47:30.750Z,5.88
2023-04-20T02:49:32.311Z,5.38
2023-04-20T02:51:33.855Z,5.35
2023-04-20T02:53:35.426Z,5.63
2023-04-20T02:55:37.001Z,5.65
2023-04-20T02:57:38.566Z,7.75
2023-04-20T02:59:40.184Z,5.10
2023-04-20T03:01:43.172Z,6.10
2023-04-20T03:03:44.950Z,6.10
2023-04-20T03:05:46.623Z,6.85
2023-04-20T03:07:48.255Z,7.35
2023-04-20T03:09:49.872Z,13.95
2023-04-20T03:11:51.588Z,17.08
2023-04-20T03:13:53.165Z,11.38
2023-04-20T03:15:55.026Z,10.07
2023-04-20T03:17:57.955Z,9.48
2023-04-20T03:19:59.861Z,8.23
2023-04-20T03:22:01.509Z,5.85
2023-04-20T03:24:03.360Z,7.07
2023-04-20T03:26:05.110Z,6.43
2023-04-20T03:28:06.704Z,6.00
2023-04-20T03:30:09.401Z,5.60
2023-04-20T03:32:11.078Z,6.22
2023-04-20T03:34:14.059Z,5.35
2023-04-20T03:36:15.580Z,6.20
2023-04-20T03:38:17.132Z,6.95
2023-04-20T03:40:18.747Z,7.30
2023-04-20T03:42:20.312Z,7.65
2023-04-20T03:44:21.854Z,6.65
2023-04-20T03:46:23.719Z,6.15
2023-04-20T03:48:25.592Z,8.77
2023-04-20T03:50:28.664Z,8.18
2023-04-20T03:52:30.223Z,10.80
2023-04-20T03:54:31.833Z,5.90
2023-04-20T03:56:33.344Z,5.93
2023-04-20T03:58:34.907Z,7.55
2023-04-20T04:00:36.467Z,5.15
2023-04-20T04:02:38.574Z,5.30
2023-04-20T04:04:41.342Z,4.97
2023-04-20T04:06:44.293Z,10.65
2023-04-20T04:08:45.840Z,7.85
2023-04-20T04:10:47.487Z,7.03
2023-04-20T04:12:49.074Z,6.70
2023-04-20T04:14:50.666Z,10.50
2023-04-20T04:16:52.389Z,8.15
2023-04-20T04:18:55.101Z,6.70
2023-04-20T04:20:56.647Z,7.90
2023-04-20T04:22:59.605Z,9.85
2023-04-20T04:25:01.201Z,7.97
2023-04-20T04:27:02.756Z,7.07
2023-04-20T04:29:04.368Z,11.80
2023-04-20T04:31:06.080Z,8.05
2023-04-20T04:33:07.779Z,7.68
2023-04-20T04:35:09.446Z,8.80
2023-04-20T04:37:11.309Z,7.40
2023-04-20T04:39:14.271Z,12.35
2023-04-20T04:41:15.850Z,8.50
2023-04-20T04:43:17.601Z,6.97
2023-04-20T04:45:19.246Z,7.15
2023-04-20T04:47:21.100Z,10.13
2023-04-20T04:49:23.372Z,8.55
2023-04-20T04:51:24.974Z,13.20
2023-04-20T04:53:26.576Z,17.75
2023-04-20T04:55:29.746Z,12.60
2023-04-20T04:57:31.300Z,6.57
2023-04-20T04:59:32.904Z,6.82
2023-04-20T05:01:34.500Z,10.30
2023-04-20T05:03:36.319Z,9.50
2023-04-20T05:05:38.247Z,7.78
2023-04-20T05:07:39.797Z,12.57
2023-04-20T05:09:41.627Z,8.80
2023-04-20T05:11:44.589Z,7.82
2023-04-20T05:13:46.170Z,10.50
2023-04-20T05:15:47.690Z,7.45
2023-04-20T05:17:49.474Z,8.40
2023-04-20T05:19:51.069Z,11.02
2023-04-20T05:21:52.617Z,7.38
2023-04-20T05:23:54.278Z,9.27
2023-04-20T05:25:55.856Z,9.68
2023-04-20T05:27:59.085Z,8.73
2023-04-20T05:32:05.777Z,9.00
2023-04-20T05:34:07.363Z,10.05
2023-04-20T05:36:09.499Z,7.97
2023-04-20T05:38:11.071Z,11.82
2023-04-20T05:40:12.939Z,9.05
2023-04-20T05:42:14.521Z,7.65
2023-04-20T05:44:17.415Z,8.98
2023-04-20T05:46:19.166Z,10.57
2023-04-20T05:48:20.864Z,9.82
2023-04-20T05:50:23.071Z,8.23
2023-04-20T05:52:24.767Z,11.27
2023-04-20T05:54:26.407Z,8.48
2023-04-20T05:56:28.013Z,15.45
2023-04-20T05:58:32.299Z,11.00
2023-04-20T06:00:35.284Z,11.68
2023-04-20T06:02:37.074Z,9.20
2023-04-20T06:04:38.870Z,7.53
2023-04-20T06:06:40.645Z,10.60
2023-04-20T06:08:42.222Z,8.32
2023-04-20T06:10:43.768Z,10.85
2023-04-20T06:12:45.465Z,8.43
2023-04-20T06:14:47.038Z,11.35
2023-04-20T06:16:50.078Z,8.10
2023-04-20T06:18:51.761Z,11.52
2023-04-20T06:20:53.731Z,11.20
2023-04-20T06:22:56.613Z,10.90
2023-04-20T06:24:58.206Z,8.15
2023-04-20T06:26:59.694Z,9.85
2023-04-20T06:29:01.227Z,8.48
2023-04-20T06:31:03.251Z,10.00
2023-04-20T06:33:06.209Z,7.78
2023-04-20T06:35:08.409Z,9.30
2023-04-20T06:37:10.097Z,8.65
2023-04-20T06:39:11.852Z,9.82
2023-04-20T06:41:13.979Z,10.70
2023-04-20T06:43:15.621Z,9.40
2023-04-20T06:45:17.316Z,10.57
2023-04-20T06:47:19.037Z,9.20
2023-04-20T06:49:22.029Z,9.88
2023-04-20T06:51:23.586Z,13.57
2023-04-20T06:53:25.131Z,8.63
2023-04-20T06:55:26.857Z,10.10
2023-04-20T06:57:28.452Z,14.07
2023-04-20T06:59:30.128Z,13.30
2023-04-20T07:01:32.011Z,17.27
2023-04-20T07:03:33.778Z,8.13
2023-04-20T07:05:42.931Z,10.43
2023-04-20T07:07:44.681Z,11.85
2023-04-20T07:09:46.297Z,9.25
2023-04-20T07:11:47.847Z,7.75
2023-04-20T07:13:49.449Z,10.80
2023-04-20T07:15:51.636Z,9.52
2023-04-20T07:17:53.295Z,10.43
2023-04-20T07:19:55.007Z,8.55
2023-04-20T07:21:58.030Z,8.75
2023-04-20T07:23:59.609Z,8.85
2023-04-20T07:26:01.208Z,7.50
2023-04-20T07:28:02.720Z,9.07
2023-04-20T07:30:05.890Z,10.20
2023-04-20T07:32:07.541Z,9.27
2023-04-20T07:34:09.199Z,10.13
2023-04-20T07:36:10.915Z,10.70
2023-04-20T07:38:13.894Z,8.35
2023-04-20T07:40:15.456Z,15.15
2023-04-20T07:42:17.040Z,9.57
2023-04-20T07:44:18.656Z,9.93
2023-04-20T07:46:20.842Z,10.45
2023-04-20T07:48:22.423Z,9.10
2023-04-20T07:50:24.123Z,8.82
2023-04-20T07:52:26.098Z,9.60
2023-04-20T07:54:29.107Z,8.27
2023-04-20T07:56:30.683Z,8.63
2023-04-20T07:58:32.232Z,8.52
2023-04-20T08:00:33.775Z,8.57
2023-04-20T08:02:35.592Z,8.57
2023-04-20T08:04:37.481Z,8.97
2023-04-20T08:06:39.313Z,10.45
2023-04-20T08:08:40.844Z,7.80
2023-04-20T08:10:43.769Z,9.30
2023-04-20T08:12:45.339Z,6.40
2023-04-20T08:14:46.951Z,7.53
2023-04-20T08:16:48.613Z,7.60
2023-04-20T08:18:50.104Z,8.80
2023-04-20T08:20:51.685Z,8.20
2023-04-20T08:22:53.402Z,9.50
2023-04-20T08:24:54.927Z,8.93
2023-04-20T08:26:58.015Z,8.03
2023-04-20T08:29:00.141Z,8.40
2023-04-20T08:31:01.916Z,9.30
2023-04-20T08:33:03.869Z,8.13
2023-04-20T08:35:05.952Z,8.20
2023-04-20T08:37:08.691Z,8.73
2023-04-20T08:39:12.468Z,7.83
2023-04-20T08:41:14.586Z,8.68
2023-04-20T08:43:17.646Z,8.93
2023-04-20T08:45:19.436Z,8.23
2023-04-20T08:47:21.377Z,8.07
2023-04-20T08:49:23.404Z,8.30
2023-04-20T08:51:24.959Z,8.60
2023-04-20T08:53:26.539Z,8.83
2023-04-20T08:55:28.304Z,7.15
2023-04-20T08:57:29.876Z,7.70
2023-04-20T08:59:33.121Z,11.00
2023-04-20T09:01:36.013Z,8.10
2023-04-20T09:03:39.881Z,11.38
2023-04-20T09:05:44.678Z,9.23
2023-04-20T09:07:51.529Z,8.57
2023-04-20T09:09:56.675Z,7.30
2023-04-20T09:12:02.334Z,9.20
2023-04-20T09:14:05.931Z,11.70
2023-04-20T09:16:13.332Z,8.43
2023-04-20T09:18:16.030Z,8.40
2023-04-20T09:20:27.513Z,7.30
2023-04-20T09:22:30.176Z,8.67
2023-04-20T09:24:33.657Z,5.53
2023-04-20T09:26:36.095Z,7.00
2023-04-20T09:28:38.432Z,8.17
2023-04-20T09:30:41.651Z,6.93
2023-04-20T09:32:46.910Z,7.77
2023-04-20T09:34:48.551Z,7.70
2023-04-20T09:36:52.342Z,8.30
2023-04-20T09:39:05.866Z,6.32
2023-04-20T09:41:08.480Z,7.90
2023-04-20T09:43:17.653Z,8.33
2023-04-20T09:45:19.606Z,7.57
2023-04-20T09:47:22.559Z,8.13
2023-04-20T09:49:25.710Z,6.40
2023-04-20T09:51:27.822Z,7.93
2023-04-20T09:53:31.305Z,6.70
2023-04-20T09:55:33.526Z,9.20
2023-04-20T09:57:36.256Z,7.63
2023-04-20T09:59:40.591Z,8.03
2023-04-20T10:01:42.228Z,8.47
2023-04-20T10:03:44.965Z,8.87
2023-04-20T10:05:48.159Z,8.60
2023-04-20T10:07:59.296Z,7.30
2023-04-20T10:10:08.781Z,10.10
2023-04-20T10:12:10.484Z,9.13
2023-04-20T10:14:16.793Z,8.47
2023-04-20T10:16:19.214Z,7.53
2023-04-20T10:18:22.464Z,7.97
2023-04-20T10:20:26.065Z,8.77
2023-04-20T10:22:31.407Z,8.40
2023-04-20T10:24:33.038Z,8.03
2023-04-20T10:26:38.222Z,9.27
2023-04-20T10:28:41.313Z,7.70
2023-04-20T10:30:50.965Z,7.70
2023-04-20T10:33:03.536Z,10.20
2023-04-20T10:35:07.113Z,9.40
2023-04-20T10:37:09.276Z,9.10
2023-04-20T10:39:19.194Z,8.13
2023-04-20T10:41:21.323Z,8.10
2023-04-20T10:43:23.414Z,7.80
2023-04-20T10:45:33.872Z,7.80
2023-04-20T10:47:35.517Z,9.40
2023-04-20T10:49:37.147Z,8.33
2023-04-20T10:51:46.666Z,8.50
2023-04-20T10:53:58.497Z,8.30
2023-04-20T10:56:01.817Z,8.63
2023-04-20T10:58:03.447Z,11.67
2023-04-20T11:00:15.226Z,8.10
2023-04-20T11:02:16.997Z,8.10
2023-04-20T11:04:19.332Z,8.00
2023-04-20T11:06:22.702Z,9.23
2023-04-20T11:08:24.304Z,8.00
2023-04-20T11:10:38.078Z,9.40
2023-04-20T11:12:41.057Z,7.70
2023-04-20T11:14:52.171Z,7.50
2023-04-20T11:16:54.815Z,9.17
2023-04-20T11:18:56.448Z,7.50
2023-04-20T11:20:58.124Z,7.13
2023-04-20T11:22:59.673Z,9.33
2023-04-20T11:25:04.610Z,10.27
2023-04-20T11:27:06.261Z,7.60
2023-04-20T11:29:09.236Z,9.13
2023-04-20T11:31:16.905Z,7.83
2023-04-20T11:33:25.989Z,9.60
2023-04-20T11:35:27.630Z,8.93
2023-04-20T11:37:29.418Z,7.90
2023-04-20T11:39:31.063Z,8.00
2023-04-20T11:41:32.662Z,7.10
2023-04-20T11:43:35.050Z,7.10
2023-04-20T11:45:38.006Z,9.80
2023-04-20T11:47:39.653Z,6.60
2023-04-20T11:49:41.254Z,7.37
2023-04-20T11:51:42.970Z,7.67
2023-04-20T11:53:44.787Z,12.53
2023-04-20T11:55:46.362Z,7.63
2023-04-20T11:57:47.946Z,6.87
2023-04-20T11:59:49.685Z,7.43
2023-04-20T12:01:52.724Z,7.17
2023-04-20T12:03:54.635Z,8.87
2023-04-20T12:05:56.576Z,6.93
2023-04-20T12:07:58.212Z,6.70
2023-04-20T12:09:59.891Z,6.50
2023-04-20T12:12:01.853Z,7.10
2023-04-20T12:14:03.370Z,7.00
2023-04-20T12:16:05.754Z,7.50
2023-04-20T12:18:08.982Z,7.47
2023-04-20T12:20:11.038Z,9.57
2023-04-20T12:22:12.736Z,6.60
2023-04-20T12:24:14.393Z,6.47
2023-04-20T12:26:16.041Z,7.90
2023-04-20T12:28:17.741Z,9.60
2023-04-20T12:30:19.536Z,7.93
2023-04-20T12:32:21.171Z,9.97
2023-04-20T12:34:25.715Z,10.00
2023-04-20T12:36:27.502Z,10.90
2023-04-20T12:38:29.127Z,8.10
2023-04-20T12:40:30.884Z,9.60
2023-04-20T12:42:32.571Z,7.03
2023-04-20T12:44:34.337Z,8.33
2023-04-20T12:46:35.977Z,7.70
2023-04-20T12:48:37.583Z,8.40
2023-04-20T12:50:40.456Z,8.70
2023-04-20T12:52:42.030Z,7.87
2023-04-20T12:54:44.231Z,7.30
2023-04-20T12:56:46.032Z,7.63
2023-04-20T12:58:47.653Z,8.90
2023-04-20T13:00:49.242Z,7.63
2023-04-20T13:02:51.243Z,7.30
2023-04-20T13:04:53.010Z,6.30
2023-04-20T13:06:55.916Z,5.77
2023-04-20T13:08:57.492Z,4.63
2023-04-20T13:10:59.145Z,5.57
2023-04-20T13:13:00.736Z,6.83
2023-04-20T13:15:02.336Z,6.07
2023-04-20T13:17:03.978Z,6.73
2023-04-20T13:19:05.591Z,6.90
2023-04-20T13:21:08.332Z,6.03
2023-04-20T13:23:11.341Z,7.57
2023-04-20T13:25:12.918Z,6.30
2023-04-20T13:27:14.656Z,5.70
2023-04-20T13:29:16.611Z,5.20
2023-04-20T13:31:18.741Z,6.25
2023-04-20T13:33:20.352Z,5.83
2023-04-20T13:35:22.058Z,6.50
2023-04-20T13:37:23.820Z,6.93
2023-04-20T13:39:26.832Z,5.60
2023-04-20T13:41:28.594Z,5.60
2023-04-20T13:43:31.637Z,8.60
2023-04-20T13:45:33.274Z,6.65
2023-04-20T13:47:35.081Z,9.03
2023-04-20T13:49:44.143Z,6.80
2023-04-20T13:51:45.667Z,7.83
2023-04-20T13:53:47.317Z,6.90
2023-04-20T13:55:50.292Z,6.50
2023-04-20T13:57:51.898Z,7.43
2023-04-20T13:59:53.585Z,6.73
2023-04-20T14:01:55.195Z,7.23
2023-04-20T14:03:57.124Z,6.43
2023-04-20T14:05:58.847Z,7.53
2023-04-20T14:08:01.091Z,8.13
2023-04-20T14:10:02.883Z,8.33
2023-04-20T14:12:06.114Z,6.37
2023-04-20T14:14:07.667Z,6.67
2023-04-20T14:16:12.955Z,6.60
2023-04-20T14:18:14.701Z,6.47
2023-04-20T14:20:16.245Z,7.70
2023-04-20T14:22:17.996Z,6.83
2023-04-20T14:24:20.036Z,5.73
2023-04-20T14:26:21.894Z,5.70
2023-04-20T14:28:25.148Z,5.80
2023-04-20T14:30:26.833Z,5.37
2023-04-20T14:32:30.477Z,5.97
2023-04-20T14:34:32.200Z,5.50
2023-04-20T14:36:33.846Z,4.93
2023-04-20T14:38:35.803Z,6.27
2023-04-20T14:40:37.552Z,7.60
2023-04-20T14:42:39.178Z,6.03
2023-04-20T14:44:42.205Z,6.50
2023-04-20T14:46:44.313Z,6.80
2023-04-20T14:48:46.359Z,6.73
2023-04-20T14:50:48.023Z,7.40
2023-04-20T14:52:49.614Z,6.30
2023-04-20T14:54:51.291Z,6.77
2023-04-20T14:56:53.050Z,7.13
2023-04-20T14:58:54.880Z,7.32
2023-04-20T15:00:57.772Z,7.93
2023-04-20T15:02:59.546Z,7.47
2023-04-20T15:05:01.643Z,7.90
2023-04-20T15:07:03.378Z,8.30
2023-04-20T15:09:05.018Z,7.63
2023-04-20T15:11:06.630Z,6.57
2023-04-20T15:13:08.246Z,8.60
2023-04-20T15:15:10.618Z,7.43
2023-04-20T15:17:13.534Z,8.77
2023-04-20T15:19:15.175Z,7.50
2023-04-20T15:21:16.756Z,7.73
2023-04-20T15:23:18.406Z,7.70
2023-04-20T15:25:19.990Z,7.90
2023-04-20T15:27:21.582Z,7.20
2023-04-20T15:29:23.222Z,9.90
2023-04-20T15:31:25.083Z,8.27
2023-04-20T15:33:28.063Z,8.20
2023-04-20T15:35:29.559Z,7.63
2023-04-20T15:37:31.387Z,8.20
2023-04-20T15:39:32.994Z,7.73
2023-04-20T15:41:34.808Z,9.27
2023-04-20T15:43:36.650Z,8.20
2023-04-20T15:45:38.300Z,8.30
2023-04-20T15:47:39.963Z,8.07
2023-04-20T15:49:42.970Z,7.40
2023-04-20T15:51:44.572Z,8.52
2023-04-20T15:53:46.288Z,8.50
2023-04-20T15:55:47.966Z,7.20
2023-04-20T15:57:49.570Z,6.63
2023-04-20T15:59:51.324Z,6.65
2023-04-20T16:01:53.300Z,6.60
2023-04-20T16:03:55.241Z,7.30
2023-04-20T16:05:58.397Z,7.13
2023-04-20T16:08:00.162Z,6.60
2023-04-20T16:10:01.899Z,7.05
2023-04-20T16:12:03.792Z,7.78
2023-04-20T16:14:05.508Z,8.33
2023-04-20T16:16:07.931Z,10.10
2023-04-20T16:18:09.554Z,14.17
2023-04-20T16:20:12.084Z,12.70
2023-04-20T16:22:15.072Z,11.10
2023-04-20T16:24:16.777Z,8.70
2023-04-20T16:26:18.658Z,7.70
2023-04-20T16:28:20.290Z,8.88
2023-04-20T16:30:22.320Z,7.20
2023-04-20T16:32:24.034Z,7.80
2023-04-20T16:34:25.607Z,8.23
2023-04-20T16:36:27.183Z,7.70
2023-04-20T16:38:30.170Z,7.40
2023-04-20T16:40:31.854Z,10.10
2023-04-20T16:42:33.448Z,8.35
2023-04-20T16:44:35.208Z,7.33
2023-04-20T16:46:36.808Z,8.23
2023-04-20T16:48:38.449Z,8.45
2023-04-20T16:50:40.936Z,8.48
2023-04-20T16:52:43.756Z,8.70
2023-04-20T16:54:46.764Z,7.30
2023-04-20T16:56:48.339Z,8.10
2023-04-20T16:58:49.936Z,8.03
2023-04-20T17:00:51.609Z,8.10
2023-04-20T17:02:53.397Z,7.67
2023-04-20T17:04:55.062Z,11.02
2023-04-20T17:06:56.639Z,8.70
2023-04-20T17:08:58.310Z,8.80
2023-04-20T17:11:01.577Z,8.97
2023-04-20T17:13:03.264Z,8.80
2023-04-20T17:15:05.758Z,8.40
2023-04-20T17:17:07.510Z,9.18
2023-04-20T17:19:09.098Z,10.57
2023-04-20T17:21:10.689Z,9.60
2023-04-20T17:23:12.288Z,10.05
2023-04-20T17:25:14.315Z,10.05
2023-04-20T17:27:17.389Z,10.38
2023-04-20T17:29:18.951Z,9.80
2023-04-20T17:31:20.624Z,9.90
2023-04-20T17:33:22.268Z,10.50
2023-04-20T17:35:23.917Z,8.83
2023-04-20T17:37:25.457Z,9.60
2023-04-20T17:39:27.042Z,9.75
2023-04-20T17:41:28.677Z,10.00
2023-04-20T17:43:31.603Z,9.53
2023-04-20T17:45:33.234Z,11.13
2023-04-20T17:47:34.929Z,10.90
2023-04-20T17:49:36.595Z,8.68
2023-04-20T17:51:38.144Z,8.38
2023-04-20T17:53:39.795Z,9.07
2023-04-20T17:55:41.362Z,10.77
2023-04-20T17:57:42.917Z,10.27
2023-04-20T17:59:45.842Z,8.43
2023-04-20T18:01:47.402Z,9.00
2023-04-20T18:03:49.094Z,9.63
2023-04-20T18:05:51.681Z,9.20
2023-04-20T18:07:54.099Z,9.85
2023-04-20T18:09:55.869Z,9.37
2023-04-20T18:11:57.408Z,8.57
2023-04-20T18:13:59.767Z,9.52
2023-04-20T18:16:02.892Z,8.87
2023-04-20T18:18:04.711Z,9.20
2023-04-20T18:20:07.092Z,10.95
2023-04-20T18:22:08.777Z,10.00
2023-04-20T18:24:10.385Z,9.67
2023-04-20T18:26:11.997Z,9.53
2023-04-20T18:28:13.554Z,9.75
2023-04-20T18:30:15.953Z,10.00
2023-04-20T18:32:18.995Z,10.30
2023-04-20T18:34:20.895Z,10.70
2023-04-20T18:36:22.692Z,12.17
2023-04-20T18:38:24.354Z,12.05
2023-04-20T18:40:25.927Z,11.50
2023-04-20T18:42:27.683Z,10.45
2023-04-20T18:44:29.313Z,12.43
2023-04-20T18:46:31.198Z,10.65
2023-04-20T18:48:34.145Z,10.73
2023-04-20T18:50:35.719Z,8.20
2023-04-20T18:52:37.281Z,9.50
2023-04-20T18:54:38.898Z,8.67
2023-04-20T18:56:40.497Z,9.35
2023-04-20T18:58:42.067Z,9.73
2023-04-20T19:00:43.675Z,9.27
2023-04-20T19:02:45.325Z,9.60
2023-04-20T19:04:48.421Z,9.50
2023-04-20T19:06:50.050Z,9.70
2023-04-20T19:08:51.664Z,9.68
2023-04-20T19:10:53.264Z,8.98
2023-04-20T19:12:55.565Z,9.63
2023-04-20T19:14:57.141Z,11.15
2023-04-20T19:16:58.900Z,10.18
2023-04-20T19:19:00.950Z,10.75
2023-04-20T19:21:04.084Z,9.43
2023-04-20T19:23:05.838Z,9.27
2023-04-20T19:25:08.153Z,8.63
2023-04-20T19:27:10.024Z,11.90
2023-04-20T19:29:11.662Z,10.10
2023-04-20T19:31:13.480Z,9.25
2023-04-20T19:33:15.108Z,9.43
2023-04-20T19:35:16.843Z,9.07
2023-04-20T19:37:19.840Z,9.03
2023-04-20T19:39:21.497Z,9.90
2023-04-20T19:41:23.026Z,9.50
2023-04-20T19:43:24.683Z,10.18
2023-04-20T19:45:26.323Z,9.75
2023-04-20T19:47:27.971Z,9.98
2023-04-20T19:49:29.530Z,9.13
2023-04-20T19:51:31.679Z,10.50
2023-04-20T19:53:34.628Z,10.85
2023-04-20T19:55:36.175Z,10.85
2023-04-20T19:57:37.700Z,11.00
2023-04-20T19:59:39.252Z,10.60
2023-04-20T20:01:40.866Z,10.55
2023-04-20T20:03:42.788Z,13.57
2023-04-20T20:05:44.605Z,10.15
2023-04-20T20:07:46.164Z,12.67
2023-04-20T20:09:49.092Z,11.82
2023-04-20T20:11:50.706Z,12.27
2023-04-20T20:13:52.406Z,11.93
2023-04-20T20:15:54.053Z,10.57
2023-04-20T20:17:55.720Z,11.35
2023-04-20T20:19:57.270Z,11.68
2023-04-20T20:21:58.854Z,11.30
2023-04-20T20:24:00.501Z,11.75
2023-04-20T20:26:03.501Z,17.65
2023-04-20T20:28:05.123Z,17.10
2023-04-20T20:30:08.093Z,12.33
2023-04-20T20:32:09.690Z,12.53
2023-04-20T20:34:11.263Z,11.80
2023-04-20T20:36:12.822Z,11.07
2023-04-20T20:38:14.461Z,11.05
2023-04-20T20:40:16.133Z,10.80
2023-04-20T20:42:19.175Z,14.35
2023-04-20T20:44:20.946Z,10.83
2023-04-20T20:46:22.636Z,9.80
2023-04-20T20:48:24.300Z,11.23
2023-04-20T20:50:25.900Z,11.68
2023-04-20T20:52:27.498Z,11.45
2023-04-20T20:54:29.200Z,11.15
2023-04-20T20:56:30.765Z,10.45
2023-04-20T20:58:33.898Z,12.27
2023-04-20T21:00:35.572Z,11.10
2023-04-20T21:02:37.880Z,12.07
2023-04-20T21:04:39.583Z,11.93
2023-04-20T21:06:41.178Z,12.30
2023-04-20T21:08:42.866Z,12.75
2023-04-20T21:10:44.497Z,12.73
2023-04-20T21:12:46.076Z,13.65
2023-04-20T21:14:49.006Z,11.65
2023-04-20T21:16:50.591Z,12.40
2023-04-20T21:18:52.183Z,12.43
2023-04-20T21:20:53.799Z,13.27
2023-04-20T21:22:55.311Z,13.77
2023-04-20T21:24:57.008Z,14.40
2023-04-20T21:26:58.599Z,12.37
2023-04-20T21:29:00.162Z,13.30
2023-04-20T21:31:03.296Z,13.17
2023-04-20T21:33:04.885Z,13.00
2023-04-20T21:35:07.291Z,12.77
2023-04-20T21:37:08.826Z,12.70
2023-04-20T21:39:10.348Z,14.07
2023-04-20T21:41:12.359Z,13.40
2023-04-20T21:43:13.932Z,13.27
2023-04-20T21:45:15.532Z,14.63
2023-04-20T21:47:18.433Z,12.30
2023-04-20T21:49:20.169Z,13.27
2023-04-20T21:51:21.960Z,14.50
2023-04-20T21:53:23.537Z,13.00
2023-04-20T21:55:25.194Z,15.57
2023-04-20T21:57:28.932Z,14.98
2023-04-20T21:59:30.445Z,17.08
2023-04-20T22:01:32.083Z,15.50
2023-04-20T22:03:36.173Z,16.17
2023-04-20T22:05:39.023Z,14.68
2023-04-20T22:07:40.620Z,14.67
2023-04-20T22:09:42.349Z,14.90
2023-04-20T22:11:43.940Z,12.63
2023-04-20T22:13:45.536Z,13.85
2023-04-20T22:15:47.205Z,14.45
2023-04-20T22:17:49.330Z,14.05
2023-04-20T22:19:52.274Z,12.43
2023-04-20T22:21:53.842Z,14.57
2023-04-20T22:23:55.413Z,14.20
2023-04-20T22:25:56.986Z,13.95
2023-04-20T22:27:58.506Z,13.98
2023-04-20T22:30:00.288Z,13.30
2023-04-20T22:32:01.886Z,14.17
2023-04-20T22:34:03.456Z,13.10
2023-04-20T22:36:07.852Z,14.05
2023-04-20T22:38:09.457Z,14.70
2023-04-20T22:40:11.387Z,14.57
2023-04-20T22:42:12.950Z,13.60
2023-04-20T22:44:14.581Z,13.85
2023-04-20T22:46:16.207Z,13.90
2023-04-20T22:48:17.766Z,13.30
2023-04-20T22:50:19.554Z,12.55
2023-04-20T22:52:22.653Z,12.27
2023-04-20T22:54:24.387Z,13.83
2023-04-20T22:56:26.014Z,13.37
2023-04-20T22:58:27.593Z,12.43
2023-04-20T23:00:29.335Z,12.38
2023-04-20T23:02:31.042Z,13.40
2023-04-20T23:04:32.756Z,13.00
2023-04-20T23:06:34.376Z,13.20
2023-04-20T23:08:37.382Z,13.40
2023-04-20T23:10:39.009Z,13.50
2023-04-20T23:12:40.634Z,14.00
2023-04-20T23:14:42.405Z,12.73
2023-04-20T23:16:44.271Z,14.13
2023-04-20T23:18:45.943Z,12.32
2023-04-20T23:20:47.568Z,12.02
2023-04-20T23:22:49.043Z,12.40
2023-04-20T23:24:51.940Z,12.82
2023-04-20T23:26:53.628Z,11.88
2023-04-20T23:28:55.287Z,12.73
2023-04-20T23:30:56.907Z,13.38
2023-04-20T23:32:58.561Z,11.63
2023-04-20T23:35:00.199Z,11.32
2023-04-20T23:37:01.820Z,13.48
2023-04-20T23:39:03.784Z,12.30
2023-04-20T23:41:10.062Z,14.02
2023-04-20T23:43:11.653Z,13.63
2023-04-20T23:45:13.187Z,14.98
2023-04-20T23:47:14.781Z,14.57
2023-04-20T23:49:16.430Z,14.00
2023-04-20T23:51:18.267Z,14.98
2023-04-20T23:53:19.818Z,15.68
2023-04-20T23:55:21.472Z,14.95
2023-04-20T23:57:24.569Z,12.60
2023-04-20T23:59:26.085Z,12.15
